createdAt,value
2022-11-03T02:05:29.264Z,63.08
2022-11-03T02:10:37.771Z,61.43
2022-11-03T02:15:46.517Z,61.44
2022-11-03T02:21:06.589Z,61.29
2022-11-03T02:26:19.102Z,61.76
2022-11-03T02:31:34.985Z,61.62
2022-11-03T02:36:49.002Z,60.99
2022-11-03T02:42:01.710Z,60.87
2022-11-03T02:47:13.445Z,61.02
2022-11-03T02:52:39.193Z,61.74
2022-11-03T02:57:53.762Z,61.18
2022-11-03T03:03:08.275Z,61.42
2022-11-03T03:08:17.909Z,61.49
2022-11-03T03:13:28.384Z,61.88
2022-11-03T03:24:05.451Z,61.27
2022-11-03T03:29:20.317Z,61.46
2022-11-03T03:34:35.060Z,61.26
2022-11-03T03:39:47.173Z,60.74
2022-11-03T03:44:58.716Z,61.24
2022-11-03T03:50:06.822Z,60.96
2022-11-03T03:55:20.259Z,60.70
2022-11-03T04:00:30.467Z,60.82
2022-11-03T04:05:38.116Z,60.23
2022-11-03T04:11:07.235Z,60.85
2022-11-03T04:16:29.887Z,60.79
2022-11-03T04:21:49.874Z,60.88
2022-11-03T04:27:09.030Z,60.71
2022-11-03T04:32:20.787Z,61.05
2022-11-03T04:37:30.313Z,61.00
2022-11-03T04:42:38.392Z,60.88
2022-11-03T04:47:48.496Z,61.34
2022-11-03T04:52:59.945Z,61.29
2022-11-03T04:58:16.096Z,61.49
2022-11-03T05:03:30.076Z,61.43
2022-11-03T05:08:37.657Z,61.00
2022-11-03T05:13:45.314Z,61.15
2022-11-03T05:18:55.648Z,61.09
2022-11-03T05:24:06.387Z,61.16
2022-11-03T05:29:17.067Z,60.93
2022-11-03T05:34:36.924Z,61.33
2022-11-03T05:39:47.812Z,61.29
2022-11-03T05:44:55.493Z,61.31
2022-11-03T05:50:18.820Z,61.47
2022-11-03T05:55:30.862Z,62.00
2022-11-03T06:00:48.121Z,61.81
2022-11-03T06:06:02.122Z,61.83
2022-11-03T06:11:21.591Z,61.69
2022-11-03T06:16:41.497Z,61.50
2022-11-03T06:21:52.861Z,61.54
2022-11-03T06:27:01.027Z,61.27
2022-11-03T06:32:15.374Z,61.17
2022-11-03T06:37:27.696Z,61.31
2022-11-03T06:42:35.854Z,61.02
2022-11-03T06:47:43.696Z,61.18
2022-11-03T06:52:55.644Z,61.93
2022-11-03T06:58:07.818Z,62.15
2022-11-03T07:03:20.883Z,62.33
2022-11-03T07:08:33.746Z,62.55
2022-11-03T07:13:41.440Z,62.72
2022-11-03T07:18:49.525Z,63.56
2022-11-03T07:24:01.904Z,64.00
2022-11-03T07:29:13.344Z,64.14
2022-11-03T07:34:26.876Z,63.88
2022-11-03T07:39:42.229Z,64.09
2022-11-03T07:44:50.708Z,64.23
2022-11-03T07:49:58.992Z,64.23
2022-11-03T07:55:16.222Z,65.15
2022-11-03T08:00:24.027Z,65.35
2022-11-03T08:05:31.686Z,65.08
2022-11-03T08:10:42.364Z,65.04
2022-11-03T08:15:51.807Z,64.95
2022-11-03T08:20:59.436Z,64.72
2022-11-03T08:26:12.838Z,65.58
2022-11-03T08:31:20.567Z,65.04
2022-11-03T08:36:28.157Z,64.94
2022-11-03T08:41:38.341Z,64.68
2022-11-03T08:46:45.880Z,64.77
2022-11-03T08:51:53.455Z,64.98
2022-11-03T08:57:03.693Z,65.16
2022-11-03T09:02:11.547Z,64.47
2022-11-03T09:07:19.291Z,64.92
2022-11-03T09:12:29.395Z,64.96
2022-11-03T09:17:38.538Z,64.72
2022-11-03T09:22:48.621Z,64.68
2022-11-03T09:27:59.652Z,64.79
2022-11-03T09:33:07.664Z,64.65
2022-11-03T09:38:15.924Z,64.77
2022-11-03T09:43:26.252Z,64.70
2022-11-03T09:48:34.715Z,64.63
2022-11-03T09:53:42.747Z,64.53
2022-11-03T09:58:54.792Z,64.52
2022-11-03T10:04:03.724Z,64.36
2022-11-03T10:09:17.520Z,64.02
2022-11-03T10:14:27.702Z,64.08
2022-11-03T10:19:38.724Z,63.92
2022-11-03T10:24:46.277Z,64.01
2022-11-03T10:30:14.435Z,64.27
2022-11-03T10:35:37.972Z,63.92
2022-11-03T10:40:48.139Z,63.84
2022-11-03T10:46:29.698Z,64.51
2022-11-03T10:51:44.932Z,64.22
2022-11-03T10:56:53.929Z,64.54
2022-11-03T11:02:05.560Z,64.68
2022-11-03T11:07:23.892Z,64.02
2022-11-03T11:12:31.451Z,64.09
2022-11-03T11:17:50.168Z,64.17
2022-11-03T11:22:57.685Z,63.96
2022-11-03T11:28:14.939Z,63.99
2022-11-03T11:33:29.160Z,63.55
2022-11-03T11:39:09.198Z,63.35
2022-11-03T11:44:49.972Z,63.07
2022-11-03T11:50:19.116Z,63.00
2022-11-03T11:55:34.206Z,62.92
2022-11-03T12:00:54.187Z,62.84
2022-11-03T12:06:04.870Z,62.85
2022-11-03T12:11:16.754Z,62.39
2022-11-03T12:16:38.275Z,62.41
2022-11-03T12:21:52.738Z,62.26
2022-11-03T12:27:00.964Z,62.17
2022-11-03T12:32:25.583Z,62.17
2022-11-03T12:37:39.958Z,62.30
2022-11-03T12:42:47.602Z,61.90
2022-11-03T12:47:55.226Z,61.95
2022-11-03T12:53:06.907Z,61.82
2022-11-03T12:58:17.964Z,61.69
2022-11-03T13:03:25.559Z,62.11
2022-11-03T13:08:36.205Z,62.10
2022-11-03T13:13:44.476Z,61.86
2022-11-03T13:18:52.211Z,62.00
2022-11-03T13:24:02.335Z,62.10
2022-11-03T13:29:10.543Z,61.92
2022-11-03T13:34:18.100Z,61.84
2022-11-03T13:39:28.395Z,61.69
2022-11-03T13:44:35.969Z,61.92
2022-11-03T13:50:12.200Z,61.67
2022-11-03T14:00:43.677Z,61.92
2022-11-03T14:05:51.242Z,62.06
2022-11-03T14:11:21.358Z,61.99
2022-11-03T14:16:33.478Z,61.89
2022-11-03T14:21:42.870Z,62.21
2022-11-03T14:26:52.983Z,62.04
2022-11-03T14:32:00.616Z,61.86
2022-11-03T14:37:09.036Z,61.94
2022-11-03T14:42:19.256Z,61.92
2022-11-03T14:47:26.813Z,61.99
2022-11-03T14:52:34.292Z,62.14
2022-11-03T14:57:44.373Z,62.01
2022-11-03T15:02:51.900Z,61.88
2022-11-03T15:07:59.443Z,61.68
2022-11-03T15:13:09.989Z,61.97
2022-11-03T15:18:19.152Z,61.52
2022-11-03T15:28:56.930Z,61.63
2022-11-03T15:34:07.752Z,61.42
2022-11-03T15:39:17.940Z,61.36
2022-11-03T15:44:28.098Z,61.33
2022-11-03T15:49:35.841Z,61.25
2022-11-03T15:54:43.360Z,61.37
2022-11-03T15:59:55.353Z,61.67
2022-11-03T16:05:05.403Z,61.50
2022-11-03T16:10:13.060Z,61.50
2022-11-03T16:15:23.171Z,61.42
2022-11-03T16:20:30.760Z,61.32
2022-11-03T16:25:38.284Z,61.27
2022-11-03T16:30:53.839Z,61.36
2022-11-03T16:36:01.796Z,61.50
2022-11-03T16:41:10.284Z,61.30
2022-11-03T16:46:20.368Z,61.24
2022-11-03T16:51:28.295Z,61.42
2022-11-03T16:56:36.194Z,61.30
2022-11-03T17:01:46.505Z,61.39
2022-11-03T17:06:54.131Z,61.20
2022-11-03T17:12:01.824Z,61.38
2022-11-03T17:17:11.996Z,61.47
2022-11-03T17:22:20.403Z,61.16
2022-11-03T17:27:32.432Z,61.42
2022-11-03T17:32:44.702Z,61.52
2022-11-03T17:37:53.027Z,61.52
2022-11-03T17:43:01.011Z,61.65
2022-11-03T17:48:11.769Z,61.42
2022-11-03T17:53:23.555Z,61.40
2022-11-03T17:58:34.418Z,61.33
2022-11-03T18:03:44.848Z,61.07
2022-11-03T18:08:52.651Z,60.98
2022-11-03T18:14:00.719Z,61.04
2022-11-03T18:19:13.930Z,61.00
2022-11-03T18:24:22.919Z,60.78
2022-11-03T18:29:30.413Z,60.72
2022-11-03T18:34:41.934Z,60.50
2022-11-03T18:39:49.582Z,60.75
2022-11-03T18:45:01.488Z,60.40
2022-11-03T18:50:17.110Z,60.46
2022-11-03T18:55:24.762Z,60.28
2022-11-03T19:00:32.765Z,60.70
2022-11-03T19:05:42.891Z,60.79
2022-11-03T19:10:51.124Z,60.61
2022-11-03T19:15:59.604Z,60.72
2022-11-03T19:21:14.754Z,60.90
2022-11-03T19:26:25.992Z,61.08
2022-11-03T19:31:37.513Z,61.12
2022-11-03T19:36:49.139Z,61.05
2022-11-03T19:42:09.105Z,60.99
2022-11-03T19:52:36.896Z,61.43
2022-11-03T19:57:44.404Z,61.36
2022-11-03T20:02:51.921Z,61.44
2022-11-03T20:08:05.388Z,61.47
2022-11-03T20:13:16.563Z,61.48
2022-11-03T20:18:24.076Z,61.47
2022-11-03T20:23:39.346Z,61.49
2022-11-03T20:28:46.987Z,61.62
2022-11-03T20:33:54.488Z,61.79
2022-11-03T20:39:04.865Z,62.05
2022-11-03T20:44:14.481Z,62.08
2022-11-03T20:49:21.970Z,62.07
2022-11-03T20:54:33.271Z,61.78
2022-11-03T20:59:41.376Z,62.10
2022-11-03T21:04:48.935Z,62.33
2022-11-03T21:09:59.043Z,62.32
2022-11-03T21:15:34.544Z,62.39
2022-11-03T21:20:42.057Z,62.36
2022-11-03T21:25:52.648Z,62.42
2022-11-03T21:31:00.218Z,62.26
2022-11-03T21:36:08.569Z,62.72
2022-11-03T21:41:31.151Z,62.71
2022-11-03T21:46:43.615Z,62.40
2022-11-03T21:51:51.109Z,62.16
2022-11-03T21:57:01.208Z,62.71
2022-11-03T22:02:09.904Z,62.78
2022-11-03T22:07:17.394Z,62.95
2022-11-03T22:12:27.460Z,63.37
2022-11-03T22:17:34.979Z,62.98
2022-11-03T22:22:54.937Z,63.07
2022-11-03T22:28:07.824Z,63.27
2022-11-03T22:33:18.558Z,63.48
2022-11-03T22:38:46.143Z,63.57
2022-11-03T22:44:08.691Z,63.69
2022-11-03T22:49:16.172Z,63.27
2022-11-03T22:54:23.798Z,63.41
2022-11-03T22:59:33.924Z,63.54
2022-11-03T23:04:41.448Z,63.19
2022-11-03T23:09:48.970Z,63.24
2022-11-03T23:15:11.546Z,63.26
2022-11-03T23:20:31.561Z,63.00
2022-11-03T23:25:39.037Z,63.04
2022-11-03T23:30:49.113Z,63.15
2022-11-03T23:35:56.588Z,63.03
2022-11-03T23:41:04.987Z,62.89
2022-11-03T23:46:29.494Z,63.26
2022-11-03T23:51:38.344Z,62.78
2022-11-03T23:57:00.229Z,62.75
